createdAt,value
2023-01-04T00:01:22.939Z,30.63
2023-01-04T00:03:50.108Z,28.80
2023-01-04T00:06:18.060Z,30.58
2023-01-04T00:08:45.142Z,28.92
2023-01-04T00:11:17.921Z,28.05
2023-01-04T00:13:46.170Z,29.38
2023-01-04T00:16:16.317Z,25.90
2023-01-04T00:18:44.255Z,28.30
2023-01-04T00:21:31.077Z,28.05
2023-01-04T00:24:00.608Z,27.23
2023-01-04T00:26:30.522Z,24.52
2023-01-04T00:29:00.898Z,33.85
2023-01-04T00:31:29.113Z,29.90
2023-01-04T00:33:58.788Z,26.02
2023-01-04T00:36:26.625Z,31.23
2023-01-04T00:39:23.753Z,28.08
2023-01-04T00:42:01.291Z,25.27
2023-01-04T00:44:30.062Z,27.52
2023-01-04T00:46:57.855Z,25.27
2023-01-04T00:49:26.017Z,25.77
2023-01-04T00:51:53.516Z,27.25
2023-01-04T00:54:20.900Z,22.50
2023-01-04T00:56:48.964Z,23.25
2023-01-04T00:59:18.336Z,21.70
2023-01-04T01:01:46.113Z,27.00
2023-01-04T01:04:16.376Z,22.60
2023-01-04T01:06:43.845Z,25.33
2023-01-04T01:09:11.287Z,22.83
2023-01-04T01:11:40.398Z,21.55
2023-01-04T01:14:08.929Z,22.75
2023-01-04T01:16:54.428Z,21.38
2023-01-04T01:19:23.500Z,23.17
2023-01-04T01:21:50.528Z,25.02
2023-01-04T01:24:19.742Z,21.65
2023-01-04T01:26:47.124Z,23.63
2023-01-04T01:29:14.278Z,26.80
2023-01-04T01:31:42.298Z,27.48
2023-01-04T01:34:09.813Z,24.85
2023-01-04T01:36:37.356Z,24.60
2023-01-04T01:39:06.432Z,24.90
2023-01-04T01:41:34.995Z,22.05
2023-01-04T01:44:13.888Z,25.60
2023-01-04T01:46:52.583Z,23.33
2023-01-04T01:49:34.347Z,25.10
2023-01-04T01:52:09.328Z,23.67
2023-01-04T01:54:41.841Z,23.48
2023-01-04T01:57:13.966Z,21.40
2023-01-04T01:59:44.654Z,24.55
2023-01-04T02:02:12.633Z,22.98
2023-01-04T02:04:45.063Z,20.52
2023-01-04T02:07:16.406Z,24.13
2023-01-04T02:09:45.081Z,19.83
2023-01-04T02:12:13.497Z,20.55
2023-01-04T02:14:44.400Z,23.30
2023-01-04T02:17:35.607Z,23.42
2023-01-04T02:20:21.187Z,21.63
2023-01-04T02:23:03.476Z,25.35
2023-01-04T02:25:57.621Z,23.83
2023-01-04T02:28:48.102Z,26.20
2023-01-04T02:31:41.369Z,23.00
2023-01-04T02:34:11.223Z,24.45
2023-01-04T02:36:57.913Z,22.67
2023-01-04T02:39:49.176Z,22.70
2023-01-04T02:43:16.731Z,23.80
2023-01-04T02:45:53.606Z,24.98
2023-01-04T02:48:38.948Z,24.02
2023-01-04T02:51:06.004Z,30.67
2023-01-04T02:53:40.405Z,28.00
2023-01-04T02:56:46.914Z,32.35
2023-01-04T02:59:46.112Z,26.60
2023-01-04T03:02:40.724Z,28.75
2023-01-04T03:05:44.150Z,30.92
2023-01-04T03:08:17.964Z,28.23
2023-01-04T03:10:59.905Z,29.58
2023-01-04T03:13:43.183Z,32.83
2023-01-04T03:16:17.188Z,32.83
2023-01-04T03:18:48.430Z,32.00
2023-01-04T03:21:19.047Z,34.00
2023-01-04T03:24:07.927Z,38.08
2023-01-04T03:27:00.121Z,28.88
2023-01-04T03:30:02.640Z,34.88
2023-01-04T03:33:06.564Z,28.77
2023-01-04T03:35:47.348Z,32.55
2023-01-04T03:39:03.399Z,30.08
2023-01-04T03:42:03.226Z,38.28
2023-01-04T03:44:57.827Z,32.05
2023-01-04T03:48:30.582Z,30.77
2023-01-04T03:51:36.096Z,32.08
2023-01-04T03:54:14.842Z,29.73
2023-01-04T03:56:44.966Z,27.55
2023-01-04T03:59:13.541Z,25.95
2023-01-04T04:01:43.242Z,28.35
2023-01-04T04:04:30.091Z,25.35
2023-01-04T04:07:15.483Z,24.50
2023-01-04T04:09:42.732Z,26.40
2023-01-04T04:12:09.785Z,23.02
2023-01-04T04:14:36.857Z,23.63
2023-01-04T04:17:04.379Z,25.88
2023-01-04T04:19:31.418Z,22.88
2023-01-04T04:21:58.563Z,21.33
2023-01-04T04:24:27.080Z,22.88
2023-01-04T04:26:55.565Z,22.08
2023-01-04T04:29:23.636Z,21.58
2023-01-04T04:31:51.192Z,20.70
2023-01-04T04:34:18.428Z,24.15
2023-01-04T04:36:45.515Z,22.85
2023-01-04T04:39:13.045Z,23.25
2023-01-04T04:41:41.921Z,24.60
2023-01-04T04:44:15.140Z,22.77
2023-01-04T04:46:43.419Z,25.67
2023-01-04T04:49:10.986Z,21.50
2023-01-04T04:51:38.412Z,26.88
2023-01-04T04:54:06.492Z,26.02
2023-01-04T04:56:33.678Z,27.65
2023-01-04T04:59:00.768Z,25.83
2023-01-04T05:01:27.820Z,27.67
2023-01-04T05:03:55.098Z,29.42
2023-01-04T05:06:22.301Z,27.33
2023-01-04T05:08:49.336Z,28.25
2023-01-04T05:11:16.870Z,29.55
2023-01-04T05:13:43.873Z,30.80
2023-01-04T05:16:10.952Z,33.45
2023-01-04T05:18:38.032Z,30.48
2023-01-04T05:21:05.078Z,33.25
2023-01-04T05:23:32.115Z,26.85
2023-01-04T05:26:01.764Z,29.75
2023-01-04T05:28:29.540Z,30.27
2023-01-04T05:30:57.325Z,28.52
2023-01-04T05:33:29.757Z,28.40
2023-01-04T05:35:59.385Z,31.55
2023-01-04T05:38:26.954Z,31.15
2023-01-04T05:40:54.829Z,32.33
2023-01-04T05:43:23.616Z,31.95
2023-01-04T05:45:56.242Z,30.33
2023-01-04T05:48:24.927Z,27.27
2023-01-04T05:50:53.909Z,25.98
2023-01-04T05:53:21.156Z,28.42
2023-01-04T05:55:49.187Z,31.90
2023-01-04T05:58:16.535Z,33.92
2023-01-04T06:00:43.575Z,33.70
2023-01-04T06:03:10.799Z,33.50
2023-01-04T06:05:37.875Z,31.55
2023-01-04T06:08:05.245Z,27.80
2023-01-04T06:10:32.366Z,28.45
2023-01-04T06:12:59.355Z,32.92
2023-01-04T06:15:26.578Z,31.67
2023-01-04T06:17:53.670Z,29.55
2023-01-04T06:20:20.845Z,28.73
2023-01-04T06:22:47.789Z,29.23
2023-01-04T06:25:14.939Z,25.02
2023-01-04T06:27:42.017Z,27.55
2023-01-04T06:30:09.526Z,25.83
2023-01-04T06:32:36.863Z,31.08
2023-01-04T06:35:04.560Z,24.05
2023-01-04T06:37:31.569Z,25.58
2023-01-04T06:39:58.650Z,26.95
2023-01-04T06:42:44.131Z,26.00
2023-01-04T06:45:12.569Z,23.02
2023-01-04T06:47:41.109Z,22.23
2023-01-04T06:50:08.915Z,22.02
2023-01-04T06:52:36.483Z,22.48
2023-01-04T06:55:03.854Z,24.83
2023-01-04T06:57:31.055Z,22.23
2023-01-04T06:59:58.292Z,19.65
2023-01-04T07:02:25.638Z,22.65
2023-01-04T07:04:52.787Z,25.23
2023-01-04T07:07:19.880Z,26.77
2023-01-04T07:09:48.233Z,23.95
2023-01-04T07:12:15.426Z,25.95
2023-01-04T07:14:42.512Z,21.67
2023-01-04T07:17:09.646Z,20.85
2023-01-04T07:19:37.392Z,23.80
2023-01-04T07:22:04.483Z,26.08
2023-01-04T07:24:31.558Z,21.67
2023-01-04T07:27:02.091Z,17.45
2023-01-04T07:29:29.321Z,19.55
2023-01-04T07:31:56.870Z,20.35
2023-01-04T07:34:25.524Z,22.23
2023-01-04T07:36:52.675Z,20.23
2023-01-04T07:39:20.785Z,26.15
2023-01-04T07:41:49.491Z,24.27
2023-01-04T07:44:19.741Z,25.10
2023-01-04T07:46:46.865Z,24.08
2023-01-04T07:49:17.832Z,26.30
2023-01-04T07:51:46.812Z,24.73
2023-01-04T07:54:15.031Z,23.08
2023-01-04T07:56:42.240Z,24.85
2023-01-04T07:59:11.177Z,23.77
2023-01-04T08:01:38.966Z,22.95
2023-01-04T08:04:10.497Z,22.42
2023-01-04T08:06:38.861Z,27.02
2023-01-04T08:09:06.595Z,27.33
2023-01-04T08:11:35.828Z,28.15
2023-01-04T08:14:03.338Z,26.38
2023-01-04T08:16:37.423Z,25.30
2023-01-04T08:19:20.533Z,21.77
2023-01-04T08:21:48.655Z,27.40
2023-01-04T08:24:18.351Z,25.63
2023-01-04T08:26:46.498Z,25.83
2023-01-04T08:29:14.095Z,24.00
2023-01-04T08:31:41.673Z,24.48
2023-01-04T08:34:09.807Z,25.77
2023-01-04T08:36:53.934Z,24.95
2023-01-04T08:39:21.960Z,28.20
2023-01-04T08:42:05.126Z,30.83
2023-01-04T08:44:41.347Z,33.17
2023-01-04T08:47:08.661Z,29.63
2023-01-04T08:49:35.666Z,28.08
2023-01-04T08:52:02.962Z,29.70
2023-01-04T08:54:29.971Z,32.33
2023-01-04T08:56:57.164Z,28.88
2023-01-04T08:59:24.199Z,31.10
2023-01-04T09:01:51.343Z,30.27
2023-01-04T09:04:18.711Z,32.38
2023-01-04T09:06:45.831Z,28.55
2023-01-04T09:09:12.928Z,29.52
2023-01-04T09:11:40.062Z,28.63
2023-01-04T09:14:09.792Z,38.42
2023-01-04T09:16:38.587Z,46.17
2023-01-04T09:19:06.500Z,51.30
2023-01-04T09:21:34.226Z,48.88
2023-01-04T09:24:01.343Z,40.08
2023-01-04T09:26:28.559Z,41.78
2023-01-04T09:28:56.609Z,43.78
2023-01-04T09:31:27.101Z,52.88
2023-01-04T09:36:42.412Z,42.35
2023-01-04T09:39:14.867Z,46.88
2023-01-04T09:41:53.450Z,54.28
2023-01-04T09:47:49.083Z,51.72
2023-01-04T09:50:32.187Z,50.97
2023-01-04T09:53:28.953Z,56.10
2023-01-04T09:56:08.248Z,47.85
2023-01-04T09:58:41.425Z,43.28
2023-01-04T10:01:17.878Z,40.45
2023-01-04T10:04:02.047Z,39.60
2023-01-04T10:06:34.354Z,37.88
2023-01-04T10:09:10.666Z,33.42
2023-01-04T10:11:59.256Z,28.85
2023-01-04T10:14:28.902Z,20.02
2023-01-04T10:18:33.891Z,31.98
2023-01-04T10:23:43.955Z,13.27
2023-01-04T10:26:16.165Z,15.25
2023-01-04T10:28:45.908Z,15.73
2023-01-04T10:31:39.338Z,15.77
2023-01-04T10:34:23.459Z,13.38
2023-01-04T10:36:54.281Z,25.55
2023-01-04T10:39:32.058Z,15.82
2023-01-04T10:42:10.833Z,11.52
2023-01-04T10:45:14.133Z,12.77
2023-01-04T10:48:02.757Z,12.90
2023-01-04T10:50:29.875Z,15.48
2023-01-04T10:53:05.433Z,13.52
2023-01-04T10:56:24.167Z,13.05
2023-01-04T10:58:37.409Z,13.15
2023-01-04T11:03:40.787Z,11.23
2023-01-04T11:06:27.738Z,14.60
2023-01-04T11:09:06.745Z,9.07
2023-01-04T11:11:46.388Z,13.43
2023-01-04T11:14:14.750Z,14.35
2023-01-04T11:16:45.504Z,13.57
2023-01-04T11:19:12.728Z,11.80
2023-01-04T11:21:50.650Z,11.77
2023-01-04T11:24:34.661Z,11.43
2023-01-04T11:27:11.648Z,6.63
2023-01-04T11:29:44.868Z,12.25
2023-01-04T11:34:47.893Z,9.35
2023-01-04T11:37:39.026Z,12.15
2023-01-04T11:40:20.681Z,10.77
2023-01-04T11:43:01.796Z,9.60
2023-01-04T11:45:28.949Z,12.82
2023-01-04T11:47:58.289Z,11.07
2023-01-04T11:50:44.259Z,10.80
2023-01-04T11:53:25.215Z,12.30
2023-01-04T11:56:07.493Z,10.63
2023-01-04T11:58:34.626Z,12.20
2023-01-04T12:01:02.078Z,12.60
2023-01-04T12:03:40.305Z,14.55
2023-01-04T12:06:32.497Z,9.30
2023-01-04T12:08:59.712Z,12.70
2023-01-04T12:11:30.850Z,10.40
2023-01-04T12:13:59.891Z,10.55
2023-01-04T12:16:45.589Z,13.85
2023-01-04T12:19:18.443Z,10.55
2023-01-04T12:21:51.749Z,13.63
2023-01-04T12:27:14.349Z,14.15
2023-01-04T12:29:43.480Z,10.93
2023-01-04T12:32:13.688Z,14.57
2023-01-04T12:34:46.984Z,12.32
2023-01-04T12:37:42.756Z,10.75
2023-01-04T12:40:47.200Z,10.77
2023-01-04T12:43:17.108Z,13.82
2023-01-04T12:45:46.239Z,11.15
2023-01-04T12:48:46.665Z,9.50
2023-01-04T12:51:37.209Z,12.13
2023-01-04T12:54:24.588Z,9.33
2023-01-04T12:57:23.704Z,9.13
2023-01-04T13:00:08.496Z,11.82
2023-01-04T13:02:44.484Z,15.10
2023-01-04T13:08:11.724Z,11.23
2023-01-04T13:10:43.896Z,11.23
2023-01-04T13:13:20.196Z,10.20
2023-01-04T13:16:02.075Z,12.45
2023-01-04T13:18:47.743Z,12.40
2023-01-04T13:21:21.711Z,10.95
2023-01-04T13:23:52.830Z,12.02
2023-01-04T13:26:40.450Z,12.05
2023-01-04T13:29:18.540Z,15.00
2023-01-04T13:32:01.278Z,10.82
2023-01-04T13:34:46.510Z,8.90
2023-01-04T13:37:19.320Z,8.20
2023-01-04T13:39:52.093Z,14.35
2023-01-04T13:42:31.986Z,13.18
2023-01-04T13:45:21.026Z,11.32
2023-01-04T13:47:51.978Z,16.85
2023-01-04T13:50:40.281Z,13.85
2023-01-04T13:53:19.515Z,12.85
2023-01-04T13:55:51.903Z,14.57
2023-01-04T13:58:21.942Z,12.30
2023-01-04T14:00:55.631Z,16.92
2023-01-04T14:03:28.960Z,14.60
2023-01-04T14:08:36.140Z,15.27
2023-01-04T14:11:14.970Z,15.35
2023-01-04T14:13:48.313Z,17.17
2023-01-04T14:18:43.099Z,14.77
2023-01-04T14:21:18.914Z,18.42
2023-01-04T14:23:46.188Z,14.77
2023-01-04T14:26:34.002Z,11.63
2023-01-04T14:29:32.892Z,13.02
2023-01-04T14:32:02.425Z,15.80
2023-01-04T14:34:29.480Z,15.82
2023-01-04T14:37:03.920Z,15.18
2023-01-04T14:39:34.294Z,14.18
2023-01-04T14:42:01.763Z,14.57
2023-01-04T14:44:31.172Z,13.18
2023-01-04T14:47:02.318Z,14.38
2023-01-04T14:49:30.028Z,17.23
2023-01-04T14:51:59.846Z,15.02
2023-01-04T14:54:30.538Z,15.23
2023-01-04T14:56:58.994Z,16.77
2023-01-04T14:59:27.107Z,13.88
2023-01-04T15:01:55.886Z,15.07
2023-01-04T15:04:23.471Z,20.02
2023-01-04T15:06:57.583Z,16.58
2023-01-04T15:09:25.616Z,12.63
2023-01-04T15:11:52.764Z,12.05
2023-01-04T15:14:20.239Z,15.30
2023-01-04T15:16:47.768Z,18.02
2023-01-04T15:19:15.024Z,16.00
2023-01-04T15:21:42.146Z,13.65
2023-01-04T15:24:10.451Z,17.17
2023-01-04T15:26:38.969Z,15.52
2023-01-04T15:29:07.047Z,13.20
2023-01-04T15:31:39.546Z,13.05
2023-01-04T15:34:09.298Z,12.35
2023-01-04T15:36:38.873Z,11.68
2023-01-04T15:39:07.617Z,12.70
2023-01-04T15:41:53.517Z,12.85
2023-01-04T15:44:21.307Z,11.57
2023-01-04T15:46:48.403Z,10.68
2023-01-04T15:49:17.880Z,14.85
2023-01-04T15:51:46.021Z,14.57
2023-01-04T15:54:13.718Z,12.68
2023-01-04T15:56:40.758Z,12.63
2023-01-04T15:59:07.947Z,16.25
2023-01-04T16:01:35.086Z,14.32
2023-01-04T16:04:03.322Z,14.50
2023-01-04T16:06:30.473Z,13.82
2023-01-04T16:08:59.111Z,10.32
2023-01-04T16:11:26.239Z,17.65
2023-01-04T16:13:54.008Z,17.20
2023-01-04T16:16:23.787Z,14.82
2023-01-04T16:18:53.183Z,18.33
2023-01-04T16:21:23.584Z,16.83
2023-01-04T16:23:52.097Z,14.13
2023-01-04T16:26:19.605Z,23.85
2023-01-04T16:28:55.974Z,13.40
2023-01-04T16:31:23.372Z,16.27
2023-01-04T16:33:54.368Z,17.35
2023-01-04T16:36:21.609Z,20.50
2023-01-04T16:38:48.800Z,21.77
2023-01-04T16:41:18.729Z,21.70
2023-01-04T16:43:48.372Z,19.58
2023-01-04T16:46:21.502Z,18.52
2023-01-04T16:48:57.043Z,17.80
2023-01-04T16:51:26.274Z,18.58
2023-01-04T16:53:53.846Z,15.85
2023-01-04T16:56:25.227Z,16.77
2023-01-04T16:58:52.787Z,16.55
2023-01-04T17:01:24.542Z,17.23
2023-01-04T17:03:55.598Z,17.67
2023-01-04T17:06:30.866Z,14.70
2023-01-04T17:08:59.432Z,17.23
2023-01-04T17:14:18.092Z,18.23
2023-01-04T17:16:45.088Z,16.33
2023-01-04T17:19:12.229Z,16.73
2023-01-04T17:21:39.741Z,17.77
2023-01-04T17:24:07.137Z,16.27
2023-01-04T17:26:34.406Z,17.55
2023-01-04T17:29:02.210Z,15.30
2023-01-04T17:31:39.991Z,19.05
2023-01-04T17:34:10.587Z,16.85
2023-01-04T17:36:38.528Z,18.08
2023-01-04T17:39:06.071Z,19.45
2023-01-04T17:41:33.340Z,16.75
2023-01-04T17:44:02.955Z,16.50
2023-01-04T17:46:32.607Z,19.63
2023-01-04T17:49:22.153Z,16.77
2023-01-04T17:51:53.014Z,18.70
2023-01-04T17:54:21.433Z,18.60
2023-01-04T17:56:48.691Z,19.45
2023-01-04T17:59:15.817Z,21.27
2023-01-04T18:01:43.042Z,33.53
2023-01-04T18:04:10.218Z,22.50
2023-01-04T18:06:37.749Z,24.85
2023-01-04T18:09:09.139Z,22.00
2023-01-04T18:11:37.842Z,21.20
2023-01-04T18:14:09.616Z,27.80
2023-01-04T18:16:57.201Z,28.55
2023-01-04T18:19:27.837Z,27.05
2023-01-04T18:21:56.213Z,27.23
2023-01-04T18:24:39.460Z,26.08
2023-01-04T18:27:27.881Z,25.55
2023-01-04T18:29:56.207Z,30.70
2023-01-04T18:32:25.433Z,30.45
2023-01-04T18:34:52.602Z,33.20
2023-01-04T18:37:19.749Z,39.22
2023-01-04T18:39:48.553Z,35.75
2023-01-04T18:42:16.046Z,30.25
2023-01-04T18:44:48.452Z,37.92
2023-01-04T18:47:20.074Z,31.80
2023-01-04T18:49:48.326Z,32.65
2023-01-04T18:52:16.084Z,31.60
2023-01-04T18:54:44.926Z,34.30
2023-01-04T18:57:12.599Z,38.47
2023-01-04T18:59:40.919Z,39.67
2023-01-04T19:02:08.122Z,44.53
2023-01-04T19:04:36.543Z,42.97
2023-01-04T19:07:03.546Z,47.60
2023-01-04T19:09:30.771Z,49.30
2023-01-04T19:11:57.822Z,42.90
2023-01-04T19:14:24.895Z,47.20
2023-01-04T19:16:53.475Z,56.47
2023-01-04T19:19:20.789Z,58.03
2023-01-04T19:21:47.998Z,59.38
2023-01-04T19:24:15.172Z,46.22
2023-01-04T19:26:42.987Z,43.33
2023-01-04T19:29:10.040Z,41.30
2023-01-04T19:31:37.387Z,46.00
2023-01-04T19:34:04.446Z,38.65
2023-01-04T19:36:31.662Z,46.60
2023-01-04T19:38:58.742Z,43.22
2023-01-04T19:41:33.808Z,43.17
2023-01-04T19:44:07.171Z,40.53
2023-01-04T19:46:34.578Z,38.63
2023-01-04T19:49:01.779Z,49.13
2023-01-04T19:51:29.060Z,39.45
2023-01-04T19:53:56.174Z,41.78
2023-01-04T19:56:23.498Z,42.25
2023-01-04T19:58:50.908Z,42.20
2023-01-04T20:01:20.028Z,44.22
2023-01-04T20:03:47.606Z,45.28
2023-01-04T20:06:16.003Z,42.35
2023-01-04T20:08:43.838Z,47.35
2023-01-04T20:11:12.136Z,37.88
2023-01-04T20:13:40.084Z,41.97
2023-01-04T20:16:07.902Z,45.95
2023-01-04T20:18:36.110Z,37.65
2023-01-04T20:21:10.739Z,37.03
2023-01-04T20:23:38.860Z,41.13
2023-01-04T20:26:11.622Z,47.55
2023-01-04T20:28:42.091Z,89.63
2023-01-04T20:31:11.762Z,99.13
2023-01-04T20:33:38.911Z,69.28
2023-01-04T20:36:15.790Z,47.83
2023-01-04T20:38:45.849Z,47.17
2023-01-04T20:41:19.284Z,36.15
2023-01-04T20:46:22.994Z,37.42
2023-01-04T20:48:51.311Z,36.58
2023-01-04T20:51:23.533Z,30.02
2023-01-04T20:53:51.177Z,33.95
2023-01-04T20:56:21.298Z,32.10
2023-01-04T20:58:49.294Z,31.83
2023-01-04T21:01:18.298Z,30.80
2023-01-04T21:03:46.141Z,30.10
2023-01-04T21:06:15.825Z,32.33
2023-01-04T21:08:43.762Z,34.72
2023-01-04T21:11:13.240Z,29.17
2023-01-04T21:13:40.889Z,29.40
2023-01-04T21:16:09.210Z,31.95
2023-01-04T21:18:37.130Z,26.83
2023-01-04T21:21:13.975Z,31.73
2023-01-04T21:23:43.450Z,35.38
2023-01-04T21:26:17.080Z,30.23
2023-01-04T21:28:45.522Z,34.17
2023-01-04T21:31:24.392Z,32.67
2023-01-04T21:33:53.544Z,28.73
2023-01-04T21:36:25.756Z,26.85
2023-01-04T21:38:55.871Z,30.42
2023-01-04T21:41:25.081Z,32.42
2023-01-04T21:43:54.719Z,34.55
2023-01-04T21:46:22.421Z,29.67
2023-01-04T21:48:54.695Z,29.00
2023-01-04T21:51:22.366Z,29.48
2023-01-04T21:53:49.722Z,31.50
2023-01-04T21:56:19.339Z,27.65
2023-01-04T21:58:46.492Z,31.50
2023-01-04T22:01:16.528Z,25.35
2023-01-04T22:03:43.880Z,25.25
2023-01-04T22:06:13.585Z,29.80
2023-01-04T22:08:46.617Z,28.40
2023-01-04T22:11:15.412Z,28.42
2023-01-04T22:13:42.908Z,28.23
2023-01-04T22:16:13.038Z,25.00
2023-01-04T22:18:40.514Z,28.48
2023-01-04T22:21:11.757Z,29.05
2023-01-04T22:23:38.862Z,28.85
2023-01-04T22:26:06.080Z,27.08
2023-01-04T22:28:37.016Z,31.52
2023-01-04T22:31:07.024Z,25.27
2023-01-04T22:33:37.888Z,29.63
2023-01-04T22:36:22.412Z,30.95
2023-01-04T22:38:55.623Z,29.77
2023-01-04T22:41:26.519Z,30.05
2023-01-04T22:43:58.973Z,31.05
2023-01-04T22:46:27.566Z,29.57
2023-01-04T22:48:54.945Z,27.92
2023-01-04T22:51:24.771Z,23.90
2023-01-04T22:53:56.947Z,25.95
2023-01-04T22:56:24.731Z,21.95
2023-01-04T22:58:55.035Z,25.67
2023-01-04T23:01:27.985Z,29.05
2023-01-04T23:03:56.226Z,25.65
2023-01-04T23:06:26.020Z,24.15
2023-01-04T23:09:05.126Z,25.10
2023-01-04T23:11:34.124Z,24.95
2023-01-04T23:14:06.103Z,22.70
2023-01-04T23:16:35.020Z,26.55
2023-01-04T23:19:03.368Z,26.17
2023-01-04T23:21:31.030Z,24.35
2023-01-04T23:23:59.124Z,34.08
2023-01-04T23:26:28.242Z,26.30
2023-01-04T23:28:55.856Z,31.63
2023-01-04T23:31:25.208Z,27.02
2023-01-04T23:33:54.603Z,26.05
2023-01-04T23:36:24.859Z,26.80
2023-01-04T23:38:54.776Z,25.38
2023-01-04T23:41:42.333Z,23.60
2023-01-04T23:44:12.420Z,23.33
2023-01-04T23:46:39.859Z,22.65
2023-01-04T23:49:07.016Z,24.88
2023-01-04T23:51:33.998Z,23.42
2023-01-04T23:54:01.088Z,21.35
2023-01-04T23:56:28.257Z,29.10
2023-01-04T23:58:55.380Z,24.02
